Time;durP1;ratioP1;P1;durP2;ratioP2;P2;SDS_P1;SDS_P2;PMS_P1;PMS_P2;Temp;Humidity;BMP_temperature;BMP_pressure;BME280_temperature;BME280_humidity;BME280_pressure;Samples;Min_cycle;Max_cycle;Signal;HPM_P1;HPM_P2
2022/04/20 00:00:54;;;;;;;3.90;2.20;;;;;;;6.12;95.17;101053.94;4989506;28;20042;-79
2022/04/20 00:03:22;;;;;;;4.83;3.43;;;;;;;6.20;94.45;101054.84;5016002;28;20068;-77
2022/04/20 00:05:49;;;;;;;4.73;2.97;;;;;;;6.16;95.44;101041.72;5028256;28;20033;-78
2022/04/20 00:08:15;;;;;;;4.80;2.80;;;;;;;6.21;95.24;101061.84;5027249;28;20569;-78
2022/04/20 00:10:42;;;;;;;4.97;2.90;;;;;;;6.19;94.66;101063.59;5025051;28;20049;-78
2022/04/20 00:13:11;;;;;;;4.03;2.43;;;;;;;6.09;94.86;101059.19;5012036;28;20041;-78
2022/04/20 00:15:44;;;;;;;7.53;3.00;;;;;;;6.10;94.91;101058.31;5008078;28;20092;-78
2022/04/20 00:18:11;;;;;;;4.13;2.60;;;;;;;6.09;95.54;101056.56;5021710;28;20132;-79
2022/04/20 00:20:38;;;;;;;5.40;3.00;;;;;;;6.16;93.79;101063.59;4990644;28;20041;-77
2022/04/20 00:23:05;;;;;;;6.43;2.87;;;;;;;6.18;94.71;101063.59;5011373;28;20076;-78
2022/04/20 00:25:32;;;;;;;3.47;2.80;;;;;;;6.06;95.91;101064.44;5011922;28;20041;-78
2022/04/20 00:27:59;;;;;;;4.93;2.30;;;;;;;5.96;96.33;101073.09;5021177;28;20042;-79
2022/04/20 00:30:25;;;;;;;3.60;2.30;;;;;;;6.00;96.13;101069.63;5008918;28;20045;-78
2022/04/20 00:32:53;;;;;;;5.23;2.83;;;;;;;5.99;96.57;101065.25;5006286;28;20045;-78
2022/04/20 00:35:19;;;;;;;5.50;2.90;;;;;;;6.03;95.83;101066.13;5024567;28;20041;-78
2022/04/20 00:37:46;;;;;;;3.03;2.23;;;;;;;6.04;96.05;101067.88;5015068;28;20037;-79
2022/04/20 00:40:13;;;;;;;3.73;2.20;;;;;;;6.03;96.50;101072.25;5004346;28;20053;-79
2022/04/20 00:42:43;;;;;;;3.93;2.00;;;;;;;5.97;96.91;101060.84;5019036;28;20395;-79
2022/04/20 00:45:12;;;;;;;4.13;2.37;;;;;;;6.03;96.32;101060.88;5009754;28;20057;-79
2022/04/20 00:47:42;;;;;;;4.60;2.30;;;;;;;6.06;96.65;101064.44;5008466;28;20411;-79
2022/04/20 00:50:11;;;;;;;4.00;2.40;;;;;;;6.02;96.19;101067.88;5022968;28;20046;-79
2022/04/20 00:52:38;;;;;;;5.10;2.90;;;;;;;6.13;96.99;101065.31;5023991;28;20484;-79
2022/04/20 00:55:25;;;;;;;5.00;2.70;;;;;;;6.07;97.01;101068.78;5015336;28;20053;-79
2022/04/20 00:57:52;;;;;;;3.87;2.70;;;;;;;6.01;97.87;101074.00;5018750;28;20060;-79
2022/04/20 01:00:20;;;;;;;3.90;2.53;;;;;;;6.10;97.15;101068.78;5003976;28;20108;-79
2022/04/20 01:02:49;;;;;;;6.07;3.40;;;;;;;6.01;98.25;101075.75;5002817;28;20056;-79
2022/04/20 01:05:17;;;;;;;4.33;2.77;;;;;;;6.00;97.95;101072.25;5016640;28;20052;-79
2022/04/20 01:07:43;;;;;;;4.93;2.63;;;;;;;6.06;98.19;101069.66;5019848;28;20053;-79
2022/04/20 01:10:10;;;;;;;4.17;2.70;;;;;;;6.05;99.30;101074.88;5013417;28;20040;-80
2022/04/20 01:12:38;;;;;;;10.47;4.10;;;;;;;6.10;98.74;101076.66;4996024;28;20041;-80
2022/04/20 01:15:05;;;;;;;7.57;3.00;;;;;;;6.08;99.25;101067.91;5002643;28;20490;-79
2022/04/20 01:17:31;;;;;;;5.40;2.77;;;;;;;6.16;99.40;101065.34;5008074;28;20510;-79
2022/04/20 01:19:58;;;;;;;6.23;3.57;;;;;;;6.24;98.47;101068.00;4990747;28;20045;-79
2022/04/20 01:22:25;;;;;;;4.53;3.50;;;;;;;6.27;99.04;101074.13;5006832;28;20042;-79
2022/04/20 01:24:52;;;;;;;15.80;4.50;;;;;;;6.18;99.93;101074.06;4997382;28;20441;-79
2022/04/20 01:27:19;;;;;;;3.93;2.87;;;;;;;6.21;100.00;101066.22;4988569;28;20462;-79
2022/04/20 01:29:46;;;;;;;6.63;3.93;;;;;;;6.23;100.00;101072.38;5015650;28;20092;-79
2022/04/20 01:32:13;;;;;;;4.60;3.30;;;;;;;6.20;100.00;101073.22;4984266;28;20040;-79
2022/04/20 01:34:40;;;;;;;6.47;3.83;;;;;;;6.19;100.00;101073.22;5011938;28;20104;-79
2022/04/20 01:37:06;;;;;;;8.43;4.00;;;;;;;6.16;100.00;101070.59;5017209;28;20443;-79
2022/04/20 01:39:33;;;;;;;7.97;3.93;;;;;;;6.12;100.00;101074.91;5019333;28;20049;-79
2022/04/20 01:42:00;;;;;;;6.10;4.13;;;;;;;6.10;100.00;101075.78;4998428;28;20037;-78
2022/04/20 01:44:27;;;;;;;7.57;4.13;;;;;;;6.14;100.00;101069.72;4999987;28;20070;-79
2022/04/20 01:46:53;;;;;;;6.57;3.70;;;;;;;6.14;100.00;101074.94;5017019;28;20046;-79
2022/04/20 01:49:20;;;;;;;9.53;4.00;;;;;;;6.07;100.00;101073.16;5003456;28;20042;-79
2022/04/20 01:51:47;;;;;;;7.53;4.20;;;;;;;6.05;100.00;101078.38;5017709;28;20483;-79
2022/04/20 01:54:20;;;;;;;6.07;3.97;;;;;;;6.06;100.00;101069.66;5012426;28;20666;-79
2022/04/20 01:56:48;;;;;;;6.88;3.90;;;;;;;6.02;100.00;101067.00;4987207;28;20038;-79
2022/04/20 01:59:16;;;;;;;7.50;4.20;;;;;;;5.93;100.00;101068.72;5001361;28;20514;-79
2022/04/20 02:04:28;;;;;;;7.20;4.37;;;;;;;5.83;100.00;101055.53;5004696;28;20057;-79
2022/04/20 02:06:58;;;;;;;6.83;4.20;;;;;;;5.84;100.00;101062.53;5004819;28;20911;-79
2022/04/20 02:09:26;;;;;;;5.10;3.20;;;;;;;5.82;100.00;101048.53;5006612;28;20042;-79
2022/04/20 02:11:52;;;;;;;5.43;4.27;;;;;;;5.80;100.00;101051.16;5007917;28;20502;-79
2022/04/20 02:14:19;;;;;;;5.30;3.27;;;;;;;5.84;100.00;101052.91;4999626;28;20061;-79
2022/04/20 02:16:49;;;;;;;7.20;3.37;;;;;;;5.84;100.00;101050.28;4987238;28;20411;-79
2022/04/20 02:19:16;;;;;;;5.23;3.80;;;;;;;5.96;100.00;101052.13;5008356;28;20136;-79
2022/04/20 02:21:43;;;;;;;6.27;3.97;;;;;;;5.91;100.00;101048.63;4993016;28;20049;-79
2022/04/20 02:24:14;;;;;;;7.67;4.20;;;;;;;5.83;100.00;101059.03;5008160;28;20499;-79
2022/04/20 02:26:41;;;;;;;6.23;3.87;;;;;;;5.86;100.00;101060.78;5008968;28;20513;-79
2022/04/20 02:29:08;;;;;;;5.70;3.57;;;;;;;5.83;100.00;101058.16;4990103;28;20545;-79
2022/04/20 02:31:35;;;;;;;4.63;3.60;;;;;;;5.85;100.00;101064.28;5009393;28;20037;-79
2022/04/20 02:34:01;;;;;;;5.73;3.57;;;;;;;5.76;100.00;101059.84;5005069;28;20077;-79
2022/04/20 02:36:28;;;;;;;7.83;3.60;;;;;;;5.76;100.00;101059.84;4997727;28;20041;-79
2022/04/20 02:38:55;;;;;;;6.83;3.87;;;;;;;5.83;100.00;101068.63;5013293;28;20041;-79
2022/04/20 02:41:21;;;;;;;5.87;4.23;;;;;;;5.73;100.00;101061.59;5026195;28;20042;-79
2022/04/20 02:43:49;;;;;;;9.47;4.03;;;;;;;5.74;100.00;101065.97;4986617;28;20037;-79
2022/04/20 02:46:16;;;;;;;5.33;3.60;;;;;;;5.78;100.00;101060.72;5001085;28;20103;-79
2022/04/20 02:48:42;;;;;;;8.10;4.53;;;;;;;5.76;100.00;101067.72;5003905;28;20041;-79
2022/04/20 02:51:09;;;;;;;9.00;4.47;;;;;;;5.86;100.00;101063.41;5013560;28;20038;-79
2022/04/20 02:53:36;;;;;;;6.33;3.80;;;;;;;5.87;100.00;101049.41;5005195;28;20332;-79
2022/04/20 02:56:02;;;;;;;6.13;4.10;;;;;;;5.87;100.00;101055.53;5025812;28;20037;-79
2022/04/20 02:58:29;;;;;;;5.47;3.87;;;;;;;5.71;100.00;101048.44;5021216;28;20046;-78
2022/04/20 03:00:55;;;;;;;6.33;4.77;;;;;;;5.79;100.00;101048.50;5027638;28;20565;-79
2022/04/20 03:03:22;;;;;;;7.93;3.87;;;;;;;5.80;100.00;101050.25;5023153;28;20068;-79
2022/04/20 03:05:50;;;;;;;7.37;4.20;;;;;;;5.80;100.00;101040.66;5021473;28;20383;-79
2022/04/20 03:08:17;;;;;;;6.47;4.07;;;;;;;5.75;100.00;101038.88;5000536;28;20053;-79
2022/04/20 03:10:44;;;;;;;4.93;3.90;;;;;;;5.76;100.00;101043.25;5021934;28;20040;-78
2022/04/20 03:13:11;;;;;;;7.00;4.03;;;;;;;5.79;100.00;101045.88;5012393;28;20095;-79
2022/04/20 03:15:37;;;;;;;7.13;3.83;;;;;;;5.74;100.00;101043.25;5005304;28;20466;-79
2022/04/20 03:18:04;;;;;;;7.57;4.00;;;;;;;5.69;100.00;101050.19;5008808;28;20041;-79
2022/04/20 03:20:30;;;;;;;6.33;3.90;;;;;;;5.68;100.00;101044.94;5025523;28;20399;-78
2022/04/20 03:22:57;;;;;;;7.23;4.00;;;;;;;5.72;100.00;101047.63;4991739;28;20580;-78
2022/04/20 03:25:24;;;;;;;6.17;3.87;;;;;;;5.62;100.00;101049.28;4991399;28;20045;-78
2022/04/20 03:27:50;;;;;;;10.13;4.77;;;;;;;5.73;100.00;101046.75;5003175;28;20388;-78
2022/04/20 03:30:17;;;;;;;7.63;4.00;;;;;;;5.64;100.00;101049.31;5026280;28;20095;-78
2022/04/20 03:32:44;;;;;;;6.30;4.60;;;;;;;5.59;100.00;101045.78;5002200;28;20541;-79
2022/04/20 03:35:10;;;;;;;7.50;4.17;;;;;;;5.59;100.00;101048.41;5025856;28;20045;-79
2022/04/20 03:37:37;;;;;;;7.17;4.70;;;;;;;5.64;100.00;101050.19;5007464;28;20104;-79
2022/04/20 03:40:05;;;;;;;7.07;5.10;;;;;;;5.54;100.00;101050.09;4987484;28;20128;-80
2022/04/20 03:42:31;;;;;;;7.03;4.20;;;;;;;5.63;100.00;101055.41;5019448;28;20045;-79
2022/04/20 03:44:58;;;;;;;6.20;4.30;;;;;;;5.63;100.00;101053.69;4985339;28;20052;-79
2022/04/20 03:47:25;;;;;;;4.87;3.70;;;;;;;5.53;100.00;101051.84;5024959;28;20100;-79
2022/04/20 03:49:51;;;;;;;8.20;4.10;;;;;;;5.55;100.00;101050.13;5022835;28;20037;-79
2022/04/20 03:52:18;;;;;;;9.10;3.77;;;;;;;5.55;100.00;101052.75;5023915;28;20042;-79
2022/04/20 03:54:45;;;;;;;5.93;3.87;;;;;;;5.55;100.00;101055.38;5007208;28;20038;-79
2022/04/20 03:57:11;;;;;;;6.77;4.27;;;;;;;5.65;100.00;101057.19;5021687;28;20034;-79
2022/04/20 03:59:38;;;;;;;6.23;4.30;;;;;;;5.74;100.00;101055.47;4993144;28;20044;-78
2022/04/20 04:02:05;;;;;;;6.87;4.60;;;;;;;5.72;100.00;101046.72;5003405;28;20048;-79
2022/04/20 04:04:33;;;;;;;5.83;3.90;;;;;;;5.76;100.00;101051.13;5000336;28;20137;-79
2022/04/20 04:07:00;;;;;;;6.83;4.43;;;;;;;5.64;100.00;101051.94;5026508;28;20041;-79
2022/04/20 04:09:26;;;;;;;5.23;3.77;;;;;;;5.74;100.00;101058.09;4986478;28;20049;-79
2022/04/20 04:11:53;;;;;;;7.23;5.37;;;;;;;5.72;100.00;101049.31;5010469;28;20045;-79
2022/04/20 04:14:20;;;;;;;6.77;3.87;;;;;;;5.72;100.00;101055.47;5002598;28;20042;-79
2022/04/20 04:16:46;;;;;;;6.23;4.57;;;;;;;5.69;100.00;101052.81;5015605;28;20084;-78
2022/04/20 04:19:13;;;;;;;7.93;4.97;;;;;;;5.60;100.00;101053.66;5006586;28;20037;-78
2022/04/20 04:21:40;;;;;;;6.87;4.13;;;;;;;5.61;100.00;101054.53;5010092;28;20056;-78
2022/04/20 04:24:07;;;;;;;9.77;5.10;;;;;;;5.66;100.00;101055.44;4985162;28;20116;-78
2022/04/20 04:26:37;;;;;;;5.43;3.80;;;;;;;5.72;100.00;101049.31;5020114;28;20045;-78
2022/04/20 04:29:04;;;;;;;7.10;4.20;;;;;;;5.62;100.00;101057.16;5005961;28;20034;-78
2022/04/20 04:31:30;;;;;;;8.27;4.90;;;;;;;5.64;100.00;101060.69;5003765;28;20067;-77
2022/04/20 04:33:57;;;;;;;8.03;4.67;;;;;;;5.69;100.00;101055.44;5005965;28;20038;-77
2022/04/20 04:36:24;;;;;;;5.77;4.00;;;;;;;5.63;100.00;101051.06;4987609;28;20091;-77
2022/04/20 04:38:52;;;;;;;5.73;4.70;;;;;;;5.64;100.00;101060.69;4996623;28;20049;-78
2022/04/20 04:41:18;;;;;;;7.20;4.30;;;;;;;5.67;100.00;101056.31;5008306;28;20049;-77
2022/04/20 04:43:45;;;;;;;6.73;4.07;;;;;;;5.69;100.00;101054.56;5002510;28;20414;-78
2022/04/20 04:48:57;;;;;;;8.10;4.00;;;;;;;5.82;100.00;101051.16;5005834;28;20546;-77
2022/04/20 04:51:24;;;;;;;7.80;4.40;;;;;;;5.97;100.00;101053.91;5028721;28;20041;-78
2022/04/20 04:53:51;;;;;;;6.93;3.87;;;;;;;5.98;100.00;101055.66;4998950;28;20091;-76
2022/04/20 04:56:17;;;;;;;6.30;4.97;;;;;;;5.99;100.00;101051.28;5005333;28;20045;-78
2022/04/20 04:58:44;;;;;;;7.10;4.33;;;;;;;6.04;100.00;101049.53;4991504;28;20038;-77
2022/04/20 05:01:10;;;;;;;8.47;5.50;;;;;;;6.04;100.00;101049.53;5008975;28;20058;-78
2022/04/20 05:03:37;;;;;;;12.77;7.60;;;;;;;6.16;100.00;101049.59;4993446;28;20095;-78
2022/04/20 05:06:04;;;;;;;7.70;4.30;;;;;;;6.21;100.00;101046.09;5011931;28;20052;-78
2022/04/20 05:08:31;;;;;;;17.80;9.67;;;;;;;6.19;100.00;101060.09;4989418;28;20049;-79
2022/04/20 05:10:57;;;;;;;28.80;14.03;;;;;;;6.26;100.00;101054.00;5020964;28;20038;-79
2022/04/20 05:13:24;;;;;;;10.87;6.00;;;;;;;6.25;100.00;101056.63;5006090;28;20060;-79
2022/04/20 05:15:50;;;;;;;7.23;4.53;;;;;;;6.31;100.00;101052.28;5016416;28;20572;-79
2022/04/20 05:18:17;;;;;;;6.93;5.00;;;;;;;6.24;100.00;101062.75;5008644;28;20107;-79
2022/04/20 05:20:44;;;;;;;7.80;4.47;;;;;;;6.33;100.00;101063.66;5009760;28;20044;-79
2022/04/20 05:23:11;;;;;;;7.33;4.33;;;;;;;6.40;100.00;101060.19;5003018;28;20037;-79
2022/04/20 05:25:44;;;;;;;5.77;4.63;;;;;;;6.41;100.00;101066.28;5010618;28;20384;-79
2022/04/20 05:28:19;;;;;;;7.87;4.50;;;;;;;6.41;100.00;101068.91;4991245;28;20103;-79
2022/04/20 05:30:46;;;;;;;9.60;4.73;;;;;;;6.29;100.00;101061.00;5006528;28;20544;-79
2022/04/20 05:33:13;;;;;;;6.87;4.57;;;;;;;6.44;100.00;101067.16;5010916;28;20045;-79
2022/04/20 05:35:39;;;;;;;8.27;5.10;;;;;;;6.36;100.00;101068.03;5012265;28;20140;-79
2022/04/20 05:43:36;;;;;;;5.83;4.03;;;;;;;6.45;100.00;101063.66;5017127;28;20240;-79
2022/04/20 05:46:05;;;;;;;7.13;4.33;;;;;;;6.71;100.00;101061.09;5008552;28;20136;-79
2022/04/20 05:48:33;;;;;;;6.97;4.90;;;;;;;6.81;100.00;101055.84;4986403;28;20128;-79
2022/04/20 05:50:59;;;;;;;8.97;4.27;;;;;;;6.93;100.00;101053.25;4999784;28;20092;-79
2022/04/20 05:53:26;;;;;;;12.83;4.63;;;;;;;7.03;100.00;101048.00;4993260;28;20044;-79
2022/04/20 05:55:53;;;;;;;5.87;4.17;;;;;;;7.15;100.00;101046.28;5013318;28;20461;-80
2022/04/20 05:58:19;;;;;;;6.63;4.20;;;;;;;7.19;97.39;101042.75;5008037;28;20416;-80
2022/04/20 06:00:46;;;;;;;8.20;4.30;;;;;;;7.07;97.89;101042.78;4986104;28;20054;-79
2022/04/20 06:03:12;;;;;;;8.80;4.60;;;;;;;7.12;98.67;101044.50;5022383;28;20060;-79
2022/04/20 06:05:41;;;;;;;7.03;4.23;;;;;;;7.10;96.33;101045.38;5019797;28;20350;-79
2022/04/20 06:08:08;;;;;;;7.23;4.00;;;;;;;7.23;97.73;101050.66;5012087;28;20038;-80
2022/04/20 06:10:35;;;;;;;8.70;4.40;;;;;;;7.39;95.45;101046.22;5009657;28;20041;-79
2022/04/20 06:13:01;;;;;;;7.23;3.87;;;;;;;7.45;93.11;101046.22;5006284;28;20034;-78
2022/04/20 06:15:28;;;;;;;5.43;3.57;;;;;;;7.39;91.25;101042.72;4999944;28;20072;-78
2022/04/20 06:17:55;;;;;;;6.23;4.13;;;;;;;7.44;92.91;101048.84;5007614;28;20042;-78
2022/04/20 06:20:25;;;;;;;5.80;3.70;;;;;;;7.54;88.99;101048.84;5013426;28;20049;-78
2022/04/20 06:22:51;;;;;;;5.03;3.43;;;;;;;7.58;87.88;101052.34;5014249;28;20169;-78
2022/04/20 06:25:18;;;;;;;4.47;3.33;;;;;;;7.54;86.09;101047.97;4997241;28;20045;-78
2022/04/20 06:27:45;;;;;;;6.13;3.77;;;;;;;7.63;88.37;101047.94;4985241;28;20069;-78
2022/04/20 06:30:11;;;;;;;5.80;3.63;;;;;;;7.69;83.69;101049.69;5010927;28;20037;-78
2022/04/20 06:32:38;;;;;;;4.77;3.03;;;;;;;7.65;83.62;101047.94;4998799;28;20049;-78
2022/04/20 06:35:06;;;;;;;5.13;3.50;;;;;;;7.69;84.12;101040.03;5009616;28;20045;-78
2022/04/20 06:37:32;;;;;;;7.10;3.33;;;;;;;7.73;87.31;101035.63;5013141;28;20084;-78
2022/04/20 06:39:59;;;;;;;4.83;3.53;;;;;;;7.71;86.65;101034.78;4988347;28;20034;-78
2022/04/20 06:42:27;;;;;;;10.37;4.63;;;;;;;7.71;81.10;101034.78;5015745;28;20049;-78
2022/04/20 06:44:54;;;;;;;5.40;3.40;;;;;;;7.66;81.49;101036.56;5010375;28;20042;-77
2022/04/20 06:47:21;;;;;;;4.43;2.53;;;;;;;7.83;80.03;101035.63;5005367;28;20037;-78
2022/04/20 06:49:47;;;;;;;7.07;3.13;;;;;;;7.82;81.74;101038.28;5002156;28;20049;-78
2022/04/20 07:00:32;;;;;;;3.93;2.80;;;;;;;7.84;82.29;101020.72;5015358;28;20137;-78
2022/04/20 07:03:00;;;;;;;3.50;2.70;;;;;;;8.05;81.52;101022.38;4998209;28;20041;-78
2022/04/20 07:05:27;;;;;;;5.03;2.70;;;;;;;8.12;79.57;101021.47;5016149;28;20053;-78
2022/04/20 07:08:00;;;;;;;5.53;2.90;;;;;;;8.15;80.24;101014.41;5012021;28;20124;-78
2022/04/20 07:10:28;;;;;;;4.23;2.97;;;;;;;8.21;78.07;101015.28;5033176;28;20052;-78
2022/04/20 07:12:55;;;;;;;3.50;2.63;;;;;;;8.20;78.26;101014.41;4998668;28;20073;-78
2022/04/20 07:15:21;;;;;;;3.73;2.60;;;;;;;8.28;79.05;101032.81;4992349;28;20061;-78
2022/04/20 07:17:48;;;;;;;6.40;2.97;;;;;;;8.23;79.72;101024.91;5000643;28;20064;-78
2022/04/20 07:20:17;;;;;;;4.50;2.93;;;;;;;8.37;79.80;101020.50;4998979;28;20053;-78
2022/04/20 07:22:48;;;;;;;4.73;3.00;;;;;;;8.40;80.24;101028.38;5038047;28;20493;-78
2022/04/20 07:25:16;;;;;;;4.27;2.60;;;;;;;8.45;80.39;101023.09;5033604;28;20045;-78
2022/04/20 07:27:45;;;;;;;5.27;2.93;;;;;;;8.51;77.80;101028.31;5019820;28;20061;-78
2022/04/20 07:30:12;;;;;;;4.77;3.33;;;;;;;8.43;78.47;101030.13;5009048;28;20053;-78
2022/04/20 07:32:39;;;;;;;5.17;3.13;;;;;;;8.29;79.22;101032.78;5002404;28;20054;-78
2022/04/20 07:35:06;;;;;;;4.93;3.17;;;;;;;8.46;80.68;101035.38;4996687;28;20056;-78
2022/04/20 07:37:33;;;;;;;6.87;3.17;;;;;;;8.65;80.02;101036.13;5030910;28;20042;-78
2022/04/20 07:40:00;;;;;;;5.67;3.23;;;;;;;8.82;80.38;101036.88;5003719;28;20211;-78
2022/04/20 07:42:26;;;;;;;6.10;4.07;;;;;;;8.89;78.78;101046.47;5012196;28;20438;-78
2022/04/20 07:44:56;;;;;;;4.83;3.70;;;;;;;9.17;77.94;101046.28;5003730;28;20086;-78
2022/04/20 07:47:24;;;;;;;6.80;3.53;;;;;;;9.29;79.44;101049.69;5020287;28;20479;-78
2022/04/20 07:52:45;;;;;;;7.38;3.78;;;;;;;9.46;78.47;101059.19;5006824;28;20037;-78
2022/04/20 07:55:18;;;;;;;5.57;3.38;;;;;;;9.53;78.37;101056.50;5011160;28;20241;-78
2022/04/20 07:57:45;;;;;;;4.60;3.58;;;;;;;9.50;78.07;101061.81;5015037;28;20128;-78
2022/04/20 08:00:14;;;;;;;6.95;4.22;;;;;;;9.67;79.04;101058.09;4996429;28;20049;-78
2022/04/20 08:02:41;;;;;;;5.45;3.70;;;;;;;9.66;79.04;101057.22;4994177;28;20038;-78
2022/04/20 08:05:09;;;;;;;5.95;3.50;;;;;;;9.73;79.60;101064.19;5008266;28;20065;-79
2022/04/20 08:07:36;;;;;;;6.45;4.07;;;;;;;9.68;81.28;101063.38;5014278;28;20038;-78
2022/04/20 08:10:06;;;;;;;7.57;4.38;;;;;;;9.32;82.67;101061.94;5015993;28;20042;-79
2022/04/20 08:12:41;;;;;;;5.90;3.75;;;;;;;9.21;82.98;101063.81;4992072;28;20049;-78
2022/04/20 08:15:09;;;;;;;7.38;4.60;;;;;;;9.10;86.57;101065.66;5014769;28;20091;-79
2022/04/20 08:17:37;;;;;;;5.45;4.20;;;;;;;9.30;87.25;101059.31;5030325;28;20457;-79
2022/04/20 08:20:05;;;;;;;6.23;4.10;;;;;;;9.42;90.66;101066.28;5014027;28;20104;-78
2022/04/20 08:22:32;;;;;;;8.30;4.83;;;;;;;9.53;91.36;101064.41;5018829;28;20045;-79
2022/04/20 08:25:02;;;;;;;6.68;4.40;;;;;;;8.69;92.38;101059.81;5009070;28;20050;-79
2022/04/20 08:27:30;;;;;;;10.07;4.70;;;;;;;8.75;95.91;101058.91;5000633;28;20045;-80
2022/04/20 08:29:57;;;;;;;8.37;4.80;;;;;;;8.94;97.21;101055.25;4986132;28;20051;-79
2022/04/20 08:32:29;;;;;;;6.47;4.80;;;;;;;9.00;99.34;101049.94;5010165;28;20273;-79
2022/04/20 08:34:56;;;;;;;8.17;5.20;;;;;;;8.89;98.09;101054.38;4998202;28;20061;-79
2022/04/20 08:37:27;;;;;;;7.13;5.53;;;;;;;9.06;99.38;101050.75;4994407;28;20792;-80
2022/04/20 08:39:54;;;;;;;7.97;5.63;;;;;;;9.23;100.00;101040.94;4984258;28;20422;-79
2022/04/20 08:42:21;;;;;;;10.10;5.27;;;;;;;9.03;98.11;101031.44;5017222;28;20077;-79
2022/04/20 08:44:50;;;;;;;6.47;4.78;;;;;;;9.17;100.00;101020.81;5004542;28;20041;-80
2022/04/20 08:47:20;;;;;;;7.50;5.35;;;;;;;9.29;98.37;101011.88;5014900;28;20521;-79
2022/04/20 08:49:49;;;;;;;8.88;5.75;;;;;;;9.30;99.92;101011.00;5010517;28;20503;-79
2022/04/20 08:52:37;;;;;;;6.83;4.73;;;;;;;9.35;99.33;101011.84;5033601;28;20049;-79
2022/04/20 08:55:17;;;;;;;6.72;5.32;;;;;;;9.10;99.50;100999.78;4992357;28;20041;-79
2022/04/20 08:57:47;;;;;;;6.78;4.85;;;;;;;9.38;100.00;101006.53;4992268;28;20069;-79
2022/04/20 09:00:22;;;;;;;8.52;5.30;;;;;;;9.65;97.87;101001.84;5010193;28;20140;-79
2022/04/20 09:02:55;;;;;;;6.32;4.25;;;;;;;9.70;97.40;100994.75;4994673;28;20040;-79
2022/04/20 09:05:25;;;;;;;7.20;5.37;;;;;;;9.75;96.32;100985.91;5010970;28;20044;-79
2022/04/20 09:07:52;;;;;;;6.90;4.40;;;;;;;9.94;91.82;100983.91;5006703;28;20046;-79
2022/04/20 09:10:19;;;;;;;9.05;5.38;;;;;;;10.08;88.94;100981.94;4994361;28;20045;-79
2022/04/20 09:12:50;;;;;;;7.47;4.15;;;;;;;10.09;90.22;100975.81;4993557;28;20326;-79
2022/04/20 09:15:31;;;;;;;8.13;5.07;;;;;;;9.96;90.20;100970.69;5013534;28;20041;-78
2022/04/20 09:18:01;;;;;;;5.07;3.63;;;;;;;9.90;89.05;100976.91;5023355;28;20391;-79
2022/04/20 09:20:28;;;;;;;5.95;4.30;;;;;;;10.29;90.26;100982.59;5030774;28;20552;-78
2022/04/20 09:23:13;;;;;;;9.65;4.50;;;;;;;10.16;87.39;100988.00;5009305;28;20045;-79
2022/04/20 09:25:49;;;;;;;6.57;3.97;;;;;;;10.34;86.52;100992.22;5010600;28;20042;-81
2022/04/20 09:28:16;;;;;;;8.68;4.78;;;;;;;10.20;84.13;100991.50;5004503;28;20049;-78
2022/04/20 09:30:44;;;;;;;6.50;4.38;;;;;;;10.25;84.01;100999.34;5011357;28;20038;-79
2022/04/20 09:33:10;;;;;;;8.90;4.70;;;;;;;10.34;83.79;101004.50;5007091;28;20052;-79
2022/04/20 09:35:45;;;;;;;6.30;4.57;;;;;;;10.50;82.16;100994.59;4993651;28;20044;-78
2022/04/20 09:38:13;;;;;;;5.45;4.40;;;;;;;10.56;82.01;100986.59;5026943;28;20092;-79
2022/04/20 09:40:40;;;;;;;6.28;4.68;;;;;;;10.35;81.86;100982.50;5018090;28;20096;-79
2022/04/20 09:43:15;;;;;;;7.07;4.00;;;;;;;10.61;81.40;100985.63;4990891;28;20239;-78
2022/04/20 09:45:42;;;;;;;6.00;3.95;;;;;;;10.69;79.53;100986.41;5002044;28;20409;-79
2022/04/20 09:51:14;;;;;;;9.03;4.73;;;;;;;10.82;82.14;100987.06;5018284;28;20495;-79
2022/04/20 09:53:43;;;;;;;6.07;4.38;;;;;;;10.57;76.14;100980.41;5019211;28;20284;-78
2022/04/20 09:56:20;;;;;;;6.22;3.53;;;;;;;11.15;76.60;100982.09;5011789;28;20388;-79
2022/04/20 09:58:58;;;;;;;3.90;3.47;;;;;;;11.52;78.67;100980.53;5019102;28;20033;-79
2022/04/20 10:01:27;;;;;;;6.47;4.07;;;;;;;11.88;77.24;100974.56;5016420;28;20056;-80
2022/04/20 10:03:55;;;;;;;5.15;4.22;;;;;;;12.06;73.19;100971.53;5026319;28;20042;-79
2022/04/20 10:06:22;;;;;;;6.65;4.22;;;;;;;12.21;73.38;100960.59;5012206;28;20527;-78
2022/04/20 10:08:49;;;;;;;6.13;3.80;;;;;;;12.44;70.56;100959.19;5022545;28;20041;-78
2022/04/20 10:11:16;;;;;;;5.72;3.55;;;;;;;12.54;67.95;100964.25;5029556;28;20041;-80
2022/04/20 10:13:44;;;;;;;5.22;3.83;;;;;;;12.10;64.39;100967.88;4988911;28;20076;-79
2022/04/20 10:16:12;;;;;;;4.20;3.60;;;;;;;12.24;66.82;100957.88;5018415;28;20033;-79
2022/04/20 10:18:44;;;;;;;4.80;3.60;;;;;;;12.32;67.75;100958.56;4990374;28;20034;-79
2022/04/20 10:21:11;;;;;;;4.80;3.80;;;;;;;12.74;69.82;100955.81;5031980;28;20079;-80
2022/04/20 10:23:40;;;;;;;5.70;3.97;;;;;;;12.53;64.43;100954.56;5000867;28;20205;-79
2022/04/20 10:26:08;;;;;;;5.28;3.72;;;;;;;12.57;65.40;100947.41;5032900;28;20034;-79
2022/04/20 10:28:48;;;;;;;5.80;3.65;;;;;;;12.84;64.36;100941.41;5001819;28;20049;-79
2022/04/20 10:31:38;;;;;;;5.47;3.75;;;;;;;12.82;63.06;100937.06;5011473;28;20266;-80
2022/04/20 10:34:05;;;;;;;5.70;3.75;;;;;;;12.80;63.67;100928.28;4994108;28;20058;-80
2022/04/20 10:36:33;;;;;;;4.65;3.75;;;;;;;13.17;68.21;100926.41;4994141;28;20041;-79
2022/04/20 10:39:39;;;;;;;5.93;4.00;;;;;;;13.26;63.59;100922.66;4987730;28;20046;-79
2022/04/20 10:42:11;;;;;;;5.25;3.78;;;;;;;13.39;63.94;100924.06;4953944;28;20713;-78
2022/04/20 10:45:03;;;;;;;5.07;3.70;;;;;;;13.55;62.06;100921.84;4982377;28;20431;-81
2022/04/20 10:47:40;;;;;;;4.35;3.15;;;;;;;13.78;63.17;100921.16;4996073;28;20494;-79
2022/04/20 10:50:20;;;;;;;7.53;4.13;;;;;;;13.61;59.51;100915.47;5006948;28;20048;-81
2022/04/20 10:53:12;;;;;;;5.43;3.30;;;;;;;13.48;58.72;100912.31;5028578;28;20045;-80
2022/04/20 10:55:45;;;;;;;4.55;3.70;;;;;;;13.48;60.51;100913.19;5007820;28;20092;-79
2022/04/20 10:58:20;;;;;;;6.43;3.80;;;;;;;13.43;60.24;100915.09;5018887;28;20048;-79
2022/04/20 11:00:47;;;;;;;5.65;3.45;;;;;;;13.36;59.57;100920.63;5006267;28;20100;-79
2022/04/20 11:03:13;;;;;;;3.55;2.63;;;;;;;13.25;60.46;100915.59;5000373;28;20422;-78
2022/04/20 11:05:55;;;;;;;4.72;3.35;;;;;;;13.44;60.26;100911.53;5008414;28;20049;-78
2022/04/20 11:08:22;;;;;;;4.90;3.42;;;;;;;13.26;60.16;100913.81;5007558;28;20430;-79
2022/04/20 11:18:38;;;;;;;5.18;3.55;;;;;;;13.25;59.59;100894.38;5041099;28;20042;-78
2022/04/20 11:19:52;;;;;;;5.95;3.70;;;;;;;13.53;59.72;100884.72;5000040;28;20050;-78
2022/04/20 11:22:19;;;;;;;5.30;3.55;;;;;;;13.71;59.82;100882.47;5015195;28;20410;-78
2022/04/20 11:24:47;;;;;;;4.32;2.40;;;;;;;13.86;58.98;100879.31;5012558;28;20047;-77
2022/04/20 11:27:14;;;;;;;4.38;2.92;;;;;;;13.78;59.32;100890.16;5020136;28;20041;-77
2022/04/20 11:29:44;;;;;;;4.45;2.53;;;;;;;13.71;58.61;100875.38;5008062;28;20037;-77
2022/04/20 11:32:13;;;;;;;4.20;2.78;;;;;;;13.75;61.58;100873.47;5027012;28;20304;-78
2022/04/20 11:34:41;;;;;;;4.45;2.88;;;;;;;13.72;60.80;100869.13;4997566;28;20061;-78
2022/04/20 11:37:09;;;;;;;4.53;2.63;;;;;;;13.66;58.19;100865.78;5012624;28;20491;-78
2022/04/20 11:39:36;;;;;;;3.90;2.63;;;;;;;13.37;59.64;100869.28;5018758;28;20046;-77
2022/04/20 11:42:04;;;;;;;4.97;3.17;;;;;;;13.24;57.53;100866.97;4987315;28;20046;-78
2022/04/20 11:44:35;;;;;;;3.88;2.67;;;;;;;13.13;59.77;100852.25;5010080;28;20085;-77
2022/04/20 11:47:07;;;;;;;4.47;3.35;;;;;;;13.11;59.81;100848.75;5008456;28;20049;-77
2022/04/20 11:49:36;;;;;;;5.65;3.63;;;;;;;13.22;61.00;100855.56;5022536;28;20049;-78
2022/04/20 11:52:06;;;;;;;3.95;3.13;;;;;;;13.03;60.81;100843.69;5013930;28;20045;-78
2022/04/20 11:54:35;;;;;;;5.68;2.40;;;;;;;13.45;60.57;100838.06;5012876;28;20423;-78
2022/04/20 11:57:02;;;;;;;3.55;2.78;;;;;;;13.62;58.09;100833.16;5012636;28;20050;-77
2022/04/20 11:59:29;;;;;;;4.20;2.72;;;;;;;13.73;60.26;100839.00;5026869;28;20038;-78
2022/04/20 12:01:56;;;;;;;3.50;2.70;;;;;;;13.74;60.15;100839.88;5019957;28;20041;-78
2022/04/20 12:04:27;;;;;;;3.38;2.80;;;;;;;13.71;58.80;100846.16;5017280;28;20038;-78
2022/04/20 12:06:59;;;;;;;4.43;2.70;;;;;;;14.00;57.90;100836.41;5019118;28;20037;-77